Pensacola Regional Airport
KPNS : now visible

Airfield :











YOU CAN JOIN US ON...

 
LOGIN :

Register | Disclaimer

   EN    FR    IT 

 









Legend :    VFR   Marginal VFR   IFR   Intensive IFR   Very Intensive IFR
Visi :
Ceiling :
>= 8 km
>= 3000ft
5 to 8 km
1000 to 3000 ft
1500m to 5 km
500 to 1000 ft
800 to 1500m
200 to 500 ft
< 800m
< 200 ft
Symbols :   Thunderstorms  Fog  Heavy snow  Heavy precipitations  Wind > 20 kt






- Airport Elevation : 121 ft
- IATA code : PNS


KPNS - Pensacola Regional

CURRENT METAR :
  • 211400Z 34007KT 10SM FEW009 FEW055 SCT100 17/14 A2999 RMK AO2 T01720139

EXPIRED METARs :
  • 211332Z VRB03KT 10SM BKN008 17/14 A2997 RMK AO2 P0001 T01670139
  • 211253Z 34011KT 10SM OVC008 16/14 A2997 RMK AO2 RAB07E42 SLP151 P0000 T01610139
  • 211153Z 34012KT 10SM OVC006 16/14 A2998 RMK AO2 LTG DSNT SE AND S RAE03 SLP154 P0000 60003 70003 T01610144 10206 20161 53010
  • 211053Z 33012G20KT 10SM -RA BKN007 BKN044 OVC055 17/15 A2996 RMK AO2 RAB20 SLP146 P0002 T01670150
  • 211003Z AUTO 33005KT 10SM SCT070 BKN120 18/16 A2995 RMK AO2 LTG DSNT E AND SE T01780156
  • 210953Z AUTO 33008KT 10SM VCTS SCT120 18/16 A2995 RMK AO2 LTG DSNT E AND SE RAB0855E04 SLP144 P0001 T01780156

TAF KPNS
Valid from the 21 at 12:00 until the 22 at 12:00 UTC


211138Z 2112/2212 33012G20KT P6SM -RA BKN007 BKN045 OVC060
FM211700 34009KT 6SM BR OVC015
FM212000 35010G18KT P6SM OVC025
FM212200 34014G21KT P6SM BKN100
FM220000 35010KT P6SM SCT250
KZJX FIR / North America



MET'MAP, your aeronautical weather chart ! - Copyright ORBIFLY December 2007 - Disclaimer

ORBIFLY MET'MAP TEAM :

Programming & Development : Alexandra Zaïnal
Original concept : Baudouin d'Aumeries
Technical & hardware support : Manuel Goepfert
Assistance : Marc-Olivier Méhu




SOURCES & CREDITS :

   NOAA       Earth
Advisory